Terminal Aerodrome Forecast
Issued by NWS Tampa Bay Area, FL

Home | Current Version | Previous Version | Text Only | Print | Product List | Glossary On
Versions: 1 2 3 4 5 6 7 8 9 10 11 12 13
000
FTUS42 KTBW 231750
TAFSRQ
TAF
KSRQ 231750Z 2318/2418 25007KT P6SM VCTS SCT035CB BKN250
      TEMPO 2318/2321 VRB15G25KT 3SM TSRA BKN025CB
     FM232100 25008KT P6SM SCT040 BKN120
     FM240200 VRB03KT P6SM SCT030 BKN120
     FM240600 12003KT P6SM FEW120 SCT250
     FM241500 17006KT P6SM SCT030 SCT250=

USA.gov is the U.S. government's official web portal to all federal, state and local government web resources and services.